Latest Weather Observations for Jacup

IDW60801

Issued at 5:03 pm WST Tuesday 30 August 2016 (issued every 30 minutes, with the page automatically refreshed every 10 minutes)

About weather observations | Map of weather stations | Latest weather observations for WA | Other Formats
Station Details ID: 010905 Name: JACUP Lat: -33.89 Lon: 119.11 Height: 305.0 m
Data from the previous 72 hours. | See also: Recent months at Jacup
Date/Time
WST
Temp
°C
App
Temp
°C
Dew
Point
°C
Rel
Hum
%
Delta-T
°C
Wind Press
QNH
hPa
Press
MSL
hPa
Rain since
9am
mm
Dir  Spd
km/h
Gust
km/h
Spd
kts
Gust
kts
30/05:00pm 12.3 8.9 6.1 66 3.0 NW 13 20 7 11 1014.5 1014.5 0.0
30/04:30pm 13.8 10.5 6.2 60 3.7 NW 13 20 7 11 1014.4 1014.4 0.0
30/04:00pm 13.9 9.8 6.0 59 3.8 WNW 17 24 9 13 1014.3 1014.3 0.0
30/03:30pm 14.1 9.9 5.5 56 4.1 WNW 17 24 9 13 1014.3 1014.3 0.0
30/03:00pm 14.6 10.0 5.7 55 4.3 WNW 19 28 10 15 1014.4 1014.4 0.0
30/02:30pm 14.1 9.9 5.5 56 4.1 NW 17 26 9 14 1014.6 1014.6 0.0
30/02:00pm 14.6 10.9 6.4 58 4.0 NW 15 26 8 14 1014.7 1014.7 0.0
30/01:30pm 13.9 10.0 5.5 57 4.0 NW 15 26 8 14 1014.9 1014.9 0.0
30/01:00pm 13.0 8.8 5.7 61 3.5 WNW 17 26 9 14 1015.1 1015.1 0.0
30/12:30pm 13.4 9.6 6.0 61 3.6 WNW 15 24 8 13 1015.5 1015.5 0.0
30/12:00pm 12.5 8.6 5.4 62 3.4 W 15 26 8 14 1015.9 1016.0 0.0
30/11:30am 11.5 7.5 4.9 64 3.1 W 15 22 8 12 1016.2 1016.3 0.0
30/11:00am 11.5 7.6 5.4 66 2.9 WNW 15 30 8 16 1016.5 1016.6 0.0
30/10:30am 12.2 8.8 5.8 65 3.0 W 13 20 7 11 1016.6 1016.7 0.0
30/10:00am 11.3 7.5 5.6 68 2.7 WNW 15 20 8 11 1016.7 1016.8 0.0
30/09:30am 10.5 7.0 5.3 70 2.4 WNW 13 20 7 11 1016.8 1016.9 0.0
30/09:00am 9.6 5.5 4.6 71 2.3 W 15 22 8 12 1016.9 1017.0 8.0
30/08:30am 8.7 5.2 5.6 81 1.4 W 13 17 7 9 1016.9 1017.0 8.0
30/08:00am 7.4 4.7 5.7 89 0.8 WNW 9 13 5 7 1016.8 1016.9 8.0
30/07:30am 5.9 2.7 4.9 93 0.4 WNW 11 15 6 8 1016.8 1016.9 8.0
30/07:00am 4.4 0.9 3.5 94 0.4 WNW 11 15 6 8 1016.6 1016.7 8.0
30/06:30am 3.6 0.3 2.7 94 0.4 NW 9 13 5 7 1016.4 1016.5 8.0
30/06:00am 3.7 0.1 2.8 94 0.4 WNW 11 15 6 8 1016.3 1016.4 8.0
30/05:30am 3.8 0.2 2.8 93 0.4 WNW 11 13 6 7 1016.0 1016.1 8.0
30/05:00am 4.1 0.5 3.1 93 0.4 WNW 11 13 6 7 1015.7 1015.8 8.0
30/04:30am 4.4 0.9 3.4 93 0.4 WNW 11 13 6 7 1015.5 1015.5 8.0
30/04:00am 4.9 1.4 3.7 92 0.5 WNW 11 15 6 8 1015.2 1015.2 8.0
30/03:30am 5.6 2.6 4.2 91 0.6 WNW 9 13 5 7 1015.2 1015.2 8.0
30/03:00am 6.4 3.6 5.0 91 0.6 WNW 9 13 5 7 1015.4 1015.4 8.0
30/02:30am 6.7 3.5 5.2 90 0.7 WNW 11 15 6 8 1015.5 1015.5 8.0
30/02:00am 7.0 4.3 5.5 90 0.7 WNW 9 13 5 7 1015.6 1015.7 8.0
30/01:30am 7.0 4.8 5.5 90 0.7 SW 6 9 3 5 1015.8 1015.9 8.0
30/01:00am 7.1 6.1 5.7 91 0.6 CALM 0 0 0 0 1015.9 1016.0 8.0
30/12:30am 7.1 4.8 5.9 92 0.5 W 7 11 4 6 1016.0 1016.1 8.0
30/12:00am 7.2 4.3 6.3 94 0.4 W 11 15 6 8 1016.1 1016.2 8.0
 
Date/Time
WST
Temp
°C
App
Temp
°C
Dew
Point
°C
Rel
Hum
%
Delta-T
°C
Wind Press
QNH
hPa
Press
MSL
hPa
Rain since
9am
mm
Dir  Spd
km/h
Gust
km/h
Spd
kts
Gust
kts
29/11:30pm 7.6 5.6 6.9 95 0.3 WSW 7 9 4 5 1016.0 1016.1 8.0
29/11:00pm 7.4 4.9 6.7 95 0.3 WSW 9 15 5 8 1015.9 1016.0 8.0
29/10:30pm 7.4 5.3 6.7 95 0.3 WSW 7 11 4 6 1015.8 1015.9 8.0
29/10:00pm 7.2 4.7 6.5 95 0.3 WSW 9 13 5 7 1015.8 1015.9 8.0
29/09:30pm 7.5 4.6 6.6 94 0.4 SW 11 15 6 8 1015.8 1015.9 8.0
29/09:00pm 8.2 5.1 7.3 94 0.4 SW 13 19 7 10 1015.7 1015.8 8.0
29/08:30pm 8.2 5.9 7.3 94 0.4 SW 9 13 5 7 1015.6 1015.7 8.0
29/08:00pm 8.7 5.3 7.8 94 0.4 SW 15 20 8 11 1015.4 1015.4 8.0
29/07:30pm 9.0 6.5 8.1 94 0.4 SW 11 15 6 8 1015.0 1015.0 8.0
29/07:00pm 9.1 6.2 8.2 94 0.4 SSW 13 20 7 11 1014.9 1014.9 8.0
29/06:30pm 9.0 6.0 7.9 93 0.5 SW 13 20 7 11 1014.6 1014.6 8.0
29/06:00pm 9.6 6.4 8.4 92 0.6 SSW 15 22 8 12 1014.5 1014.5 7.8
29/05:30pm 10.2 7.9 9.0 92 0.6 SSW 11 20 6 11 1013.9 1014.0 7.8
29/05:00pm 10.5 7.0 8.8 89 0.9 SSW 17 26 9 14 1013.7 1013.8 7.8
29/04:30pm 11.6 8.0 9.9 89 0.9 SSW 19 28 10 15 1013.4 1013.5 7.6
29/04:00pm 11.0 7.0 8.9 87 1.1 SSW 20 35 11 19 1013.2 1013.3 7.6
29/03:30pm 12.3 8.3 9.0 80 1.7 SSW 20 33 11 18 1012.5 1012.5 7.4
29/03:00pm 11.8 7.6 9.9 88 1.0 SSW 22 32 12 17 1012.4 1012.4 7.4
29/02:30pm 10.8 6.5 9.4 91 0.7 SSW 22 39 12 21 1012.3 1012.3 7.4
29/02:00pm 12.8 8.5 10.7 87 1.1 SSW 24 35 13 19 1012.2 1012.2 7.2
29/01:30pm 12.3 8.4 10.9 91 0.7 SSW 22 37 12 20 1012.3 1012.3 7.2
29/01:00pm 11.8 7.9 10.7 93 0.6 SSW 22 35 12 19 1012.4 1012.4 6.6
29/12:30pm 11.9 8.1 11.0 94 0.5 SW 22 32 12 17 1012.5 1012.5 6.6
29/12:00pm 11.4 7.8 10.5 94 0.5 SSW 20 30 11 16 1012.7 1012.7 6.2
29/11:30am 11.0 6.5 10.2 95 0.4 SW 24 41 13 22 1012.8 1012.9 5.2
29/11:00am 11.3 7.4 10.7 96 0.3 SSW 22 32 12 17 1012.8 1012.9 3.4
29/10:30am 11.1 7.7 10.5 96 0.3 SSW 19 30 10 16 1012.8 1012.9 2.6
29/10:00am 10.5 6.3 9.9 96 0.3 SSW 22 33 12 18 1012.6 1012.6 1.4
29/09:30am 10.6 6.9 10.0 96 0.3 SSW 20 32 11 17 1012.5 1012.5 0.6
29/09:00am 10.1 6.2 9.5 96 0.3 SSW 20 32 11 17 1012.3 1012.3 39.6
29/08:30am 9.8 6.0 9.2 96 0.3 SSW 19 30 10 16 1012.1 1012.1 39.0
29/08:00am 9.6 5.2 9.0 96 0.3 SSW 22 32 12 17 1011.9 1011.9 38.6
29/07:30am 9.4 5.3 8.8 96 0.3 SSW 20 33 11 18 1011.7 1011.7 38.4
29/07:00am 9.3 4.8 8.7 96 0.3 SSW 22 33 12 18 1011.3 1011.3 38.2
29/06:30am 9.4 5.0 8.8 96 0.3 SSW 22 33 12 18 1010.9 1010.9 38.0
29/06:00am 9.3 4.5 8.7 96 0.3 SSW 24 39 13 21 1010.6 1010.6 37.0
29/05:30am 9.4 5.0 8.8 96 0.3 SSW 22 37 12 20 1010.1 1010.2 36.4
29/05:00am 9.3 5.2 8.7 96 0.3 SSW 20 30 11 16 1009.8 1009.8 35.8
29/04:30am 9.3 4.8 8.7 96 0.3 SSW 22 39 12 21 1009.5 1009.5 35.0
29/04:00am 9.1 5.0 8.5 96 0.3 SSW 20 30 11 16 1009.4 1009.4 34.4
29/03:30am 9.1 4.6 8.5 96 0.3 SSW 22 35 12 19 1009.2 1009.2 33.4
29/03:00am 9.2 4.7 8.6 96 0.3 SSW 22 39 12 21 1009.2 1009.2 33.0
29/02:30am 9.2 5.1 8.6 96 0.3 SSW 20 32 11 17 1009.2 1009.2 32.6
29/02:00am 9.2 4.7 8.6 96 0.3 SSW 22 35 12 19 1009.3 1009.3 32.2
29/01:30am 9.3 5.2 8.7 96 0.3 SSW 20 30 11 16 1009.3 1009.3 31.6
29/01:00am 9.5 6.0 8.7 95 0.4 SSW 17 28 9 15 1009.3 1009.3 29.8
29/12:30am 9.4 4.9 8.6 95 0.4 SSW 22 37 12 20 1009.2 1009.2 26.6
29/12:00am 9.3 4.8 8.5 95 0.4 SSW 22 35 12 19 1009.3 1009.3 25.6
 
Date/Time
WST
Temp
°C
App
Temp
°C
Dew
Point
°C
Rel
Hum
%
Delta-T
°C
Wind Press
QNH
hPa
Press
MSL
hPa
Rain since
9am
mm
Dir  Spd
km/h
Gust
km/h
Spd
kts
Gust
kts
28/11:30pm 9.4 5.9 8.6 95 0.4 SSW 17 30 9 16 1009.3 1009.3 25.4
28/11:00pm 9.4 5.3 8.6 95 0.4 SSW 20 30 11 16 1009.4 1009.4 24.4
28/10:30pm 9.4 5.5 8.6 95 0.4 S 19 28 10 15 1009.4 1009.4 23.6
28/10:00pm 9.5 5.4 8.7 95 0.4 S 20 30 11 16 1009.5 1009.5 23.6
28/09:30pm 9.8 5.8 9.0 95 0.4 S 20 33 11 18 1009.4 1009.4 23.2
28/09:00pm 9.9 6.5 9.1 95 0.4 S 17 26 9 14 1009.2 1009.2 23.0
28/08:30pm 9.9 5.2 9.1 95 0.4 S 24 39 13 21 1008.8 1008.8 22.8
28/08:00pm 9.7 6.2 8.9 95 0.4 SSW 17 30 9 16 1008.4 1008.4 22.2
28/07:30pm 9.4 6.2 8.5 94 0.4 SW 15 24 8 13 1008.1 1008.1 21.2
28/07:00pm 8.7 5.3 7.8 94 0.4 SW 15 20 8 11 1007.7 1007.7 21.0
28/06:30pm 9.1 5.8 8.0 93 0.5 SW 15 24 8 13 1007.6 1007.6 21.0
28/06:00pm 9.3 5.7 8.2 93 0.5 SW 17 24 9 13 1007.4 1007.4 21.0
28/05:30pm 9.8 5.9 8.7 93 0.5 SSW 19 28 10 15 1006.9 1006.9 21.0
28/05:00pm 10.4 5.7 9.2 92 0.6 SSW 24 41 13 22 1006.6 1006.6 21.0
28/04:30pm 10.9 6.2 9.3 90 0.8 SSW 24 39 13 21 1006.2 1006.2 19.6
28/04:00pm 11.1 7.5 10.0 93 0.6 SSW 19 30 10 16 1005.8 1005.8 19.4
28/03:30pm 11.0 5.8 10.2 95 0.4 SSW 28 41 15 22 1005.2 1005.2 19.4
28/03:00pm 10.7 5.4 9.9 95 0.4 SSW 28 43 15 23 1004.9 1004.9 19.2
28/02:30pm 10.9 6.4 10.1 95 0.4 S 24 48 13 26 1004.5 1004.5 17.6
28/02:00pm 11.2 7.6 10.4 95 0.4 SSW 20 33 11 18 1003.9 1003.8 15.0
28/01:30pm 11.3 6.9 10.5 95 0.4 S 24 33 13 18 1003.7 1003.6 14.2
28/01:00pm 10.3 6.6 9.4 94 0.5 S 19 33 10 18 1003.5 1003.5 13.6
28/12:30pm 11.3 8.3 10.5 95 0.4 SSW 17 26 9 14 1003.2 1003.2 7.4
28/12:00pm 10.6 6.0 9.8 95 0.4 SW 24 41 13 22 1003.3 1003.3 6.6
28/11:30am 10.6 6.4 9.7 94 0.5 SW 22 35 12 19 1003.2 1003.2 4.8
28/11:00am 11.0 6.9 10.1 94 0.5 SW 22 41 12 22 1003.1 1003.1 3.8
28/10:30am 10.9 6.7 9.8 93 0.6 SSW 22 35 12 19 1002.7 1002.7 2.0
28/10:00am 11.1 6.2 10.0 93 0.6 SW 26 41 14 22 1002.1 1002.1 0.2
28/09:30am 10.9 6.4 10.0 94 0.5 SW 24 41 13 22 1001.9 1001.9 0.2
28/09:00am 10.6 6.4 9.8 95 0.4 SW 22 35 12 19 1001.7 1001.7 8.8
28/08:30am 9.8 5.4 9.0 95 0.4 SW 22 35 12 19 1001.6 1001.5 8.8
28/08:00am 9.8 5.8 9.2 96 0.3 SW 20 33 11 18 1001.0 1000.9 8.0
28/07:30am 9.6 5.5 8.8 95 0.4 SW 20 30 11 16 1000.5 1000.4 6.6
28/07:00am 9.1 5.1 8.3 95 0.4 WSW 19 30 10 16 999.8 999.8 5.6
28/06:30am 8.7 4.4 7.9 95 0.4 WSW 20 32 11 17 999.4 999.4 4.4
28/06:00am 8.5 4.2 7.7 95 0.4 W 20 30 11 16 998.8 998.7 4.4
28/05:30am 8.5 3.8 7.6 94 0.4 W 22 35 12 19 998.4 998.3 4.4
28/05:00am 8.5 3.4 7.6 94 0.4 W 24 35 13 19 998.2 998.1 4.4
28/04:30am 8.5 3.8 7.6 94 0.4 W 22 33 12 18 997.9 997.8 4.4
28/04:00am 8.6 3.1 7.7 94 0.4 W 26 37 14 20 997.6 997.5 4.4
28/03:30am 8.7 3.6 7.8 94 0.4 W 24 43 13 23 997.6 997.5 4.2
28/03:00am 8.8 3.8 7.9 94 0.4 W 24 37 13 20 997.6 997.5 4.2
28/02:30am 8.7 3.6 7.8 94 0.4 W 24 41 13 22 997.5 997.4 4.2
28/02:00am 8.8 3.4 7.9 94 0.4 W 26 37 14 20 997.3 997.2 4.2
28/01:30am 8.9 4.3 8.1 95 0.4 W 22 33 12 18 997.3 997.2 4.2
28/01:00am 9.0 4.0 8.1 94 0.4 W 24 37 13 20 997.3 997.2 4.0
28/12:30am 9.0 4.8 8.1 94 0.4 W 20 32 11 17 997.1 997.0 4.0
28/12:00am 9.1 4.5 8.2 94 0.4 W 22 33 12 18 996.9 996.8 4.0
 
Date/Time
WST
Temp
°C
App
Temp
°C
Dew
Point
°C
Rel
Hum
%
Delta-T
°C
Wind Press
QNH
hPa
Press
MSL
hPa
Rain since
9am
mm
Dir  Spd
km/h
Gust
km/h
Spd
kts
Gust
kts
27/11:30pm 9.1 4.2 8.3 95 0.4 W 24 37 13 20 996.4 996.4 4.0
27/11:00pm 9.3 5.1 8.4 94 0.4 WSW 20 32 11 17 996.3 996.3 3.8
27/10:30pm 9.4 4.5 8.5 94 0.4 WSW 24 39 13 21 995.9 995.8 3.0
27/10:00pm 9.5 4.6 8.6 94 0.5 W 24 39 13 21 995.7 995.6 2.8
27/09:30pm 9.5 5.0 8.4 93 0.5 NW 22 43 12 23 995.4 995.3 2.6
27/09:00pm 9.5 5.0 8.4 93 0.5 NW 22 43 12 23 995.8 995.7 1.8
27/08:30pm 9.4 4.0 8.2 92 0.6 NW 26 39 14 21 996.1 996.1 1.4
27/08:00pm 9.7 4.6 7.8 88 0.9 NW 24 37 13 20 996.3 996.3 1.0
27/07:30pm 10.5 5.3 7.4 81 1.5 NW 24 41 13 22 996.4 996.4 0.8
27/07:00pm 10.2 4.6 7.1 81 1.5 NW 26 39 14 21 996.4 996.4 0.8
27/06:30pm 10.2 4.3 7.4 83 1.4 NW 28 37 15 20 996.3 996.3 0.8
27/06:11pm 11.2 5.2 7.1 76 2.0 NW 28 46 15 25 996.6 996.6 0.8
27/06:00pm 11.2 5.5 6.7 74 2.2 NW 26 39 14 21 996.5 996.5 0.8
27/05:30pm 11.8 7.4 7.5 75 2.1 NW 20 35 11 19 996.2 996.2 0.8

Other Formats:

Comma delimited format used in spreadsheet applications
http://www.bom.gov.au/fwo/IDW60801/IDW60801.95636.axf

JavaScript Object Notation format (JSON) in row-major order
http://www.bom.gov.au/fwo/IDW60801/IDW60801.95636.json